createdAt,value
2022-11-12T00:00:40.501Z,9.63
2022-11-12T00:03:07.483Z,11.57
2022-11-12T00:05:34.092Z,9.20
2022-11-12T00:08:00.844Z,9.10
2022-11-12T00:10:27.706Z,9.63
2022-11-12T00:12:55.189Z,9.20
2022-11-12T00:15:21.889Z,10.63
2022-11-12T00:17:48.351Z,9.90
2022-11-12T00:20:15.259Z,11.70
2022-11-12T00:22:42.490Z,10.55
2022-11-12T00:25:09.175Z,9.23
2022-11-12T00:27:35.875Z,9.10
2022-11-12T00:30:02.691Z,8.63
2022-11-12T00:32:29.116Z,9.32
2022-11-12T00:34:55.523Z,9.18
2022-11-12T00:37:23.210Z,8.85
2022-11-12T00:39:49.789Z,10.18
2022-11-12T00:42:16.191Z,7.78
2022-11-12T00:44:42.603Z,10.23
2022-11-12T00:47:09.011Z,10.20
2022-11-12T00:49:35.424Z,10.20
2022-11-12T00:52:02.016Z,10.40
2022-11-12T00:54:28.450Z,10.63
2022-11-12T00:56:54.881Z,10.75
2022-11-12T00:59:21.302Z,10.70
2022-11-12T01:01:47.842Z,9.65
2022-11-12T01:04:14.240Z,10.00
2022-11-12T01:06:41.214Z,8.98
2022-11-12T01:09:09.287Z,11.15
2022-11-12T01:11:36.284Z,8.57
2022-11-12T01:14:06.173Z,8.45
2022-11-12T01:16:36.872Z,10.32
2022-11-12T01:19:04.764Z,9.73
2022-11-12T01:21:32.990Z,9.18
2022-11-12T01:24:00.948Z,10.60
2022-11-12T01:26:31.184Z,9.40
2022-11-12T01:28:58.007Z,9.63
2022-11-12T01:31:32.615Z,9.50
2022-11-12T01:34:02.075Z,8.52
2022-11-12T01:36:34.137Z,9.40
2022-11-12T01:39:00.651Z,9.05
2022-11-12T01:41:30.137Z,9.38
2022-11-12T01:44:12.295Z,9.60
2022-11-12T01:46:47.733Z,10.00
2022-11-12T01:49:27.202Z,9.35
2022-11-12T01:51:55.944Z,7.53
2022-11-12T01:54:23.035Z,8.65
2022-11-12T01:56:50.745Z,8.88
2022-11-12T01:59:23.193Z,9.68
2022-11-12T02:01:49.616Z,10.02
2022-11-12T02:04:16.610Z,8.73
2022-11-12T02:06:45.285Z,10.52
2022-11-12T02:09:13.344Z,8.77
2022-11-12T02:11:39.757Z,9.77
2022-11-12T02:14:06.588Z,9.50
2022-11-12T02:16:42.023Z,10.45
2022-11-12T02:19:12.464Z,8.80
2022-11-12T02:21:39.111Z,10.75
2022-11-12T02:24:25.476Z,8.73
2022-11-12T02:26:55.051Z,10.57
2022-11-12T02:29:22.671Z,9.70
2022-11-12T02:31:49.061Z,10.13
2022-11-12T02:34:15.481Z,8.88
2022-11-12T02:36:41.890Z,8.77
2022-11-12T02:39:08.305Z,9.68
2022-11-12T02:41:34.738Z,9.07
2022-11-12T02:44:01.325Z,8.73
2022-11-12T02:46:27.728Z,9.80
2022-11-12T02:48:54.146Z,9.90
2022-11-12T02:51:20.658Z,8.63
2022-11-12T02:53:47.077Z,8.85
2022-11-12T02:56:13.485Z,9.30
2022-11-12T02:58:39.914Z,8.68
2022-11-12T03:01:06.399Z,7.95
2022-11-12T03:03:32.900Z,9.23
2022-11-12T03:06:01.396Z,8.38
2022-11-12T03:08:28.740Z,8.93
2022-11-12T03:10:55.359Z,8.50
2022-11-12T03:13:21.808Z,8.13
2022-11-12T03:15:48.270Z,8.68
2022-11-12T03:18:14.921Z,8.00
2022-11-12T03:20:41.349Z,8.48
2022-11-12T03:23:10.016Z,8.38
2022-11-12T03:25:36.835Z,8.80
2022-11-12T03:28:06.653Z,8.88
2022-11-12T03:30:35.527Z,8.43
2022-11-12T03:33:02.241Z,8.25
2022-11-12T03:35:28.738Z,7.88
2022-11-12T03:37:55.201Z,8.15
2022-11-12T03:40:22.052Z,9.38
2022-11-12T03:42:50.136Z,8.10
2022-11-12T03:45:18.215Z,8.48
2022-11-12T03:47:46.719Z,8.43
2022-11-12T03:50:14.820Z,9.20
2022-11-12T03:52:46.227Z,8.30
2022-11-12T03:55:14.457Z,8.60
2022-11-12T03:57:41.093Z,8.23
2022-11-12T04:00:09.143Z,9.30
2022-11-12T04:02:35.596Z,7.88
2022-11-12T04:05:21.035Z,8.73
2022-11-12T04:08:16.547Z,7.97
2022-11-12T04:10:43.306Z,9.65
2022-11-12T04:13:27.830Z,8.52
2022-11-12T04:16:17.230Z,9.32
2022-11-12T04:19:03.584Z,7.85
2022-11-12T04:21:50.869Z,8.85
2022-11-12T04:24:41.149Z,8.07
2022-11-12T04:27:10.017Z,7.07
2022-11-12T04:29:55.324Z,8.80
2022-11-12T04:32:22.432Z,7.50
2022-11-12T04:34:49.082Z,8.27
2022-11-12T04:37:17.809Z,7.07
2022-11-12T04:39:47.490Z,8.43
2022-11-12T04:42:32.623Z,7.70
2022-11-12T04:45:03.830Z,7.18
2022-11-12T04:47:33.519Z,8.57
2022-11-12T04:50:00.588Z,8.43
2022-11-12T04:52:28.416Z,8.07
2022-11-12T04:54:55.214Z,7.70
2022-11-12T04:57:21.916Z,6.95
2022-11-12T04:59:48.724Z,7.00
2022-11-12T05:02:17.013Z,7.35
2022-11-12T05:04:43.626Z,8.23
2022-11-12T05:07:10.677Z,8.13
2022-11-12T05:09:37.597Z,7.45
2022-11-12T05:12:04.098Z,7.90
2022-11-12T05:14:30.561Z,7.75
2022-11-12T05:16:57.001Z,7.03
2022-11-12T05:19:23.470Z,7.65
2022-11-12T05:22:13.915Z,7.25
2022-11-12T05:24:53.779Z,7.70
2022-11-12T05:27:21.309Z,6.75
2022-11-12T05:29:47.741Z,7.25
2022-11-12T05:32:16.396Z,8.13
2022-11-12T05:34:43.028Z,7.72
2022-11-12T05:37:11.032Z,7.38
2022-11-12T05:39:37.478Z,7.30
2022-11-12T05:42:13.422Z,6.70
2022-11-12T05:44:40.610Z,7.65
2022-11-12T05:47:07.050Z,7.20
2022-11-12T05:49:33.443Z,7.80
2022-11-12T05:51:59.883Z,8.63
2022-11-12T05:54:26.441Z,7.57
2022-11-12T05:56:55.954Z,8.25
2022-11-12T05:59:22.503Z,6.72
2022-11-12T06:01:49.048Z,8.02
2022-11-12T06:04:16.360Z,8.40
2022-11-12T06:06:43.415Z,7.53
2022-11-12T06:09:10.731Z,8.00
2022-11-12T06:11:37.656Z,7.47
2022-11-12T06:14:05.063Z,6.72
2022-11-12T06:16:32.310Z,8.20
2022-11-12T06:18:59.676Z,7.75
2022-11-12T06:21:28.161Z,12.02
2022-11-12T06:24:01.774Z,9.88
2022-11-12T06:26:29.943Z,10.10
2022-11-12T06:28:56.894Z,14.02
2022-11-12T06:31:23.660Z,13.10
2022-11-12T06:33:50.508Z,17.45
2022-11-12T06:36:19.386Z,18.80
2022-11-12T06:38:45.920Z,18.98
2022-11-12T06:41:13.287Z,18.77
2022-11-12T06:43:40.771Z,16.95
2022-11-12T06:46:11.316Z,14.90
2022-11-12T06:48:37.853Z,18.33
2022-11-12T06:51:15.613Z,16.95
2022-11-12T06:53:42.034Z,16.35
2022-11-12T06:56:08.497Z,21.38
2022-11-12T06:58:35.635Z,18.73
2022-11-12T07:01:14.146Z,16.77
2022-11-12T07:03:44.459Z,18.65
2022-11-12T07:06:19.164Z,17.15
2022-11-12T07:08:51.257Z,16.83
2022-11-12T07:11:19.199Z,16.88
2022-11-12T07:13:46.196Z,19.98
2022-11-12T07:16:14.116Z,19.55
2022-11-12T07:18:40.529Z,20.52
2022-11-12T07:21:10.390Z,18.17
2022-11-12T07:23:37.844Z,26.50
2022-11-12T07:26:24.581Z,19.90
2022-11-12T07:28:52.356Z,15.75
2022-11-12T07:31:20.154Z,17.95
2022-11-12T07:33:48.902Z,22.00
2022-11-12T07:36:20.065Z,18.33
2022-11-12T07:38:47.289Z,16.98
2022-11-12T07:41:24.943Z,17.88
2022-11-12T07:43:53.019Z,20.33
2022-11-12T07:46:22.523Z,18.85
2022-11-12T07:48:50.967Z,17.35
2022-11-12T07:51:19.777Z,17.38
2022-11-12T07:53:47.287Z,21.10
2022-11-12T07:56:19.994Z,18.90
2022-11-12T07:58:47.934Z,15.75
2022-11-12T08:01:32.924Z,17.42
2022-11-12T08:04:00.386Z,15.35
2022-11-12T08:06:27.815Z,15.35
2022-11-12T08:08:55.655Z,17.70
2022-11-12T08:11:22.368Z,14.98
2022-11-12T08:13:49.313Z,14.68
2022-11-12T08:16:16.155Z,14.48
2022-11-12T08:18:44.989Z,12.25
2022-11-12T08:21:13.872Z,13.27
2022-11-12T08:23:41.086Z,16.30
2022-11-12T08:26:10.791Z,15.52
2022-11-12T08:28:38.352Z,15.52
2022-11-12T08:31:13.517Z,18.02
2022-11-12T08:33:41.022Z,12.13
2022-11-12T08:36:09.649Z,14.07
2022-11-12T08:38:36.860Z,14.07
2022-11-12T08:41:05.900Z,11.75
2022-11-12T08:43:32.621Z,13.05
2022-11-12T08:46:00.488Z,12.57
2022-11-12T08:48:28.813Z,16.88
2022-11-12T08:50:56.088Z,11.90
2022-11-12T08:53:23.867Z,13.40
2022-11-12T08:55:54.436Z,15.18
2022-11-12T08:58:21.122Z,13.68
2022-11-12T09:00:47.675Z,11.70
2022-11-12T09:03:16.457Z,13.40
2022-11-12T09:05:42.932Z,11.70
2022-11-12T09:08:11.879Z,10.57
2022-11-12T09:10:39.434Z,10.23
2022-11-12T09:13:06.117Z,12.38
2022-11-12T09:15:38.030Z,13.30
2022-11-12T09:18:11.953Z,12.68
2022-11-12T09:20:38.361Z,15.50
2022-11-12T09:23:14.076Z,11.63
2022-11-12T09:25:41.589Z,10.52
2022-11-12T09:28:13.645Z,10.15
2022-11-12T09:30:51.785Z,12.43
2022-11-12T09:33:21.481Z,13.20
2022-11-12T09:35:48.334Z,9.80
2022-11-12T09:38:15.637Z,11.25
2022-11-12T09:40:55.839Z,10.70
2022-11-12T09:43:37.249Z,13.13
2022-11-12T09:46:31.273Z,12.05
2022-11-12T09:49:15.701Z,9.80
2022-11-12T09:52:06.713Z,12.50
2022-11-12T09:54:35.283Z,9.02
2022-11-12T09:57:02.451Z,10.77
2022-11-12T09:59:31.704Z,12.35
2022-11-12T10:02:25.621Z,10.90
2022-11-12T10:05:22.473Z,10.18
2022-11-12T10:08:20.539Z,10.45
2022-11-12T10:10:59.251Z,11.73
2022-11-12T10:13:37.780Z,9.70
2022-11-12T10:16:39.668Z,8.82
2022-11-12T10:19:39.870Z,9.10
2022-11-12T10:22:23.396Z,11.18
2022-11-12T10:24:50.393Z,10.23
2022-11-12T10:27:20.908Z,9.05
2022-11-12T10:29:54.547Z,9.77
2022-11-12T10:32:20.990Z,8.88
2022-11-12T10:34:47.470Z,9.38
2022-11-12T10:37:20.547Z,7.90
2022-11-12T10:39:47.722Z,8.52
2022-11-12T10:42:17.311Z,9.40
2022-11-12T10:44:44.798Z,8.55
2022-11-12T10:47:42.950Z,10.13
2022-11-12T10:50:09.444Z,7.95
2022-11-12T10:52:36.250Z,7.95
2022-11-12T10:55:14.600Z,8.63
2022-11-12T10:57:41.654Z,8.45
2022-11-12T11:00:14.160Z,8.88
2022-11-12T11:02:50.615Z,8.93
2022-11-12T11:05:38.598Z,8.30
2022-11-12T11:08:05.666Z,9.55
2022-11-12T11:10:34.840Z,9.77
2022-11-12T11:13:21.767Z,7.50
2022-11-12T11:15:59.902Z,7.35
2022-11-12T11:18:28.265Z,10.23
2022-11-12T11:21:12.361Z,8.75
2022-11-12T11:24:12.140Z,7.18
2022-11-12T11:27:01.009Z,9.55
2022-11-12T11:29:53.671Z,9.32
2022-11-12T11:32:37.482Z,11.45
2022-11-12T11:35:15.622Z,7.35
2022-11-12T11:38:02.292Z,7.20
2022-11-12T11:40:34.024Z,7.47
2022-11-12T11:43:53.879Z,8.60
2022-11-12T11:46:20.272Z,8.90
2022-11-12T11:49:01.346Z,10.65
2022-11-12T11:51:37.770Z,6.63
2022-11-12T11:54:04.120Z,7.63
2022-11-12T11:56:38.274Z,8.35
2022-11-12T11:59:15.504Z,7.50
2022-11-12T12:02:17.490Z,7.05
2022-11-12T12:04:54.381Z,7.72
2022-11-12T12:07:39.586Z,8.52
2022-11-12T12:10:12.061Z,8.05
2022-11-12T12:13:00.408Z,7.53
2022-11-12T12:15:40.562Z,7.43
2022-11-12T12:18:34.619Z,6.53
2022-11-12T12:21:13.501Z,7.97
2022-11-12T12:23:52.109Z,7.35
2022-11-12T12:26:25.715Z,8.90
2022-11-12T12:29:13.825Z,7.32
2022-11-12T12:31:46.897Z,7.35
2022-11-12T12:34:42.506Z,8.60
2022-11-12T12:37:23.989Z,6.63
2022-11-12T12:40:02.928Z,7.88
2022-11-12T12:42:37.516Z,4.97
2022-11-12T12:45:46.717Z,7.18
2022-11-12T12:48:19.485Z,6.78
2022-11-12T12:50:47.173Z,7.18
2022-11-12T12:53:22.356Z,7.47
2022-11-12T12:55:50.503Z,6.00
2022-11-12T12:58:27.940Z,7.40
2022-11-12T13:01:05.597Z,6.53
2022-11-12T13:03:44.402Z,6.72
2022-11-12T13:06:23.283Z,7.20
2022-11-12T13:09:23.757Z,6.38
2022-11-12T13:12:04.668Z,6.30
2022-11-12T13:14:31.058Z,6.18
2022-11-12T13:17:06.665Z,6.68
2022-11-12T13:19:34.548Z,6.95
2022-11-12T13:22:19.349Z,5.57
2022-11-12T13:25:07.614Z,7.72
2022-11-12T13:27:40.340Z,6.45
2022-11-12T13:30:27.024Z,7.20
2022-11-12T13:32:55.145Z,7.55
2022-11-12T13:35:24.484Z,5.47
2022-11-12T13:37:57.027Z,7.72
2022-11-12T13:40:29.392Z,5.07
2022-11-12T13:43:33.483Z,5.25
2022-11-12T13:46:07.187Z,6.03
2022-11-12T13:49:08.689Z,5.50
2022-11-12T13:51:45.179Z,5.72
2022-11-12T13:54:30.097Z,7.40
2022-11-12T13:56:56.721Z,6.68
2022-11-12T13:59:25.747Z,5.50
2022-11-12T14:01:52.477Z,7.38
2022-11-12T14:04:26.679Z,5.22
2022-11-12T14:07:12.062Z,7.68
2022-11-12T14:09:54.437Z,6.38
2022-11-12T14:12:45.907Z,5.72
2022-11-12T14:15:29.506Z,4.40
2022-11-12T14:18:07.441Z,5.20
2022-11-12T14:20:37.108Z,5.07
2022-11-12T14:23:11.246Z,5.93
2022-11-12T14:25:52.775Z,5.18
2022-11-12T14:28:37.524Z,4.95
2022-11-12T14:31:04.800Z,5.82
2022-11-12T14:33:32.642Z,6.55
2022-11-12T14:36:04.355Z,6.00
2022-11-12T14:38:34.666Z,5.82
2022-11-12T14:41:09.708Z,5.53
2022-11-12T14:43:47.822Z,5.85
2022-11-12T14:46:27.623Z,5.07
2022-11-12T14:49:03.280Z,6.03
2022-11-12T14:51:37.089Z,5.35
2022-11-12T14:54:06.929Z,5.53
2022-11-12T14:56:43.592Z,5.43
2022-11-12T14:59:15.446Z,4.93
2022-11-12T15:04:54.908Z,4.28
2022-11-12T15:07:25.488Z,5.35
2022-11-12T15:09:51.959Z,5.20
2022-11-12T15:12:25.369Z,5.78
2022-11-12T15:14:53.462Z,4.22
2022-11-12T15:17:31.874Z,4.40
2022-11-12T15:20:13.113Z,6.03
2022-11-12T15:22:39.680Z,5.05
2022-11-12T15:25:22.163Z,5.30
2022-11-12T15:27:49.373Z,6.93
2022-11-12T15:30:30.705Z,4.28
2022-11-12T15:33:13.029Z,6.00
2022-11-12T15:35:55.195Z,5.07
2022-11-12T15:38:31.564Z,5.63
2022-11-12T15:40:59.871Z,4.43
2022-11-12T15:43:29.626Z,4.82
2022-11-12T15:45:56.783Z,5.63
2022-11-12T15:48:23.181Z,6.18
2022-11-12T15:50:49.815Z,5.13
2022-11-12T15:53:16.359Z,6.60
2022-11-12T15:55:44.001Z,5.07
2022-11-12T15:58:20.715Z,4.18
2022-11-12T16:00:47.289Z,4.68
2022-11-12T16:03:17.901Z,4.45
2022-11-12T16:05:44.733Z,6.13
2022-11-12T16:08:11.457Z,4.25
2022-11-12T16:10:40.461Z,6.90
2022-11-12T16:13:11.899Z,5.10
2022-11-12T16:15:38.545Z,5.60
2022-11-12T16:18:04.972Z,5.70
2022-11-12T16:20:33.864Z,5.82
2022-11-12T16:23:00.681Z,6.22
2022-11-12T16:25:32.044Z,5.25
2022-11-12T16:28:00.929Z,4.97
2022-11-12T16:30:30.849Z,5.65
2022-11-12T16:32:58.033Z,4.80
2022-11-12T16:35:25.575Z,4.15
2022-11-12T16:37:54.303Z,5.13
2022-11-12T16:40:26.289Z,4.25
2022-11-12T16:42:52.706Z,5.00
2022-11-12T16:45:22.163Z,5.68
2022-11-12T16:47:54.003Z,5.05
2022-11-12T16:50:25.956Z,6.32
2022-11-12T16:52:53.028Z,4.45
2022-11-12T16:55:20.561Z,5.78
2022-11-12T16:57:47.340Z,5.72
2022-11-12T17:00:16.699Z,5.25
2022-11-12T17:02:46.233Z,4.95
2022-11-12T17:05:22.950Z,6.43
2022-11-12T17:07:50.647Z,5.25
2022-11-12T17:10:17.117Z,4.68
2022-11-12T17:12:43.655Z,4.63
2022-11-12T17:15:10.394Z,5.25
2022-11-12T17:17:36.846Z,7.35
2022-11-12T17:20:03.798Z,5.47
2022-11-12T17:22:31.192Z,4.68
2022-11-12T17:24:57.643Z,5.05
2022-11-12T17:27:24.058Z,3.83
2022-11-12T17:29:50.487Z,6.63
2022-11-12T17:32:16.940Z,3.47
2022-11-12T17:34:43.353Z,4.53
2022-11-12T17:37:09.831Z,4.70
2022-11-12T17:39:36.317Z,4.28
2022-11-12T17:42:02.768Z,4.45
2022-11-12T17:44:29.312Z,9.63
2022-11-12T17:46:56.083Z,8.07
2022-11-12T17:49:22.582Z,7.43
2022-11-12T17:51:49.025Z,6.75
2022-11-12T17:54:15.411Z,5.60
2022-11-12T17:56:41.787Z,5.88
2022-11-12T17:59:08.602Z,4.95
2022-11-12T18:01:35.137Z,6.07
2022-11-12T18:04:01.626Z,8.02
2022-11-12T18:06:29.348Z,5.38
2022-11-12T18:08:58.043Z,4.35
2022-11-12T18:11:25.334Z,5.13
2022-11-12T18:13:52.151Z,6.47
2022-11-12T18:16:25.011Z,6.43
2022-11-12T18:18:55.139Z,7.25
2022-11-12T18:21:22.431Z,8.60
2022-11-12T18:23:48.818Z,6.43
2022-11-12T18:26:18.312Z,8.90
2022-11-12T18:28:50.535Z,7.18
2022-11-12T18:31:17.451Z,7.50
2022-11-12T18:33:43.890Z,10.48
2022-11-12T18:36:12.801Z,11.35
2022-11-12T18:38:39.226Z,10.68
2022-11-12T18:41:07.113Z,9.43
2022-11-12T18:43:33.621Z,8.52
2022-11-12T18:46:00.323Z,14.15
2022-11-12T18:48:31.060Z,10.48
2022-11-12T18:51:02.368Z,7.18
2022-11-12T18:53:29.889Z,7.70
2022-11-12T18:56:01.359Z,6.30
2022-11-12T18:58:34.714Z,6.20
2022-11-12T19:01:07.060Z,7.97
2022-11-12T19:03:33.577Z,11.98
2022-11-12T19:06:01.456Z,9.15
2022-11-12T19:08:28.235Z,10.85
2022-11-12T19:11:02.684Z,8.13
2022-11-12T19:13:30.062Z,6.18
2022-11-12T19:16:03.593Z,6.90
2022-11-12T19:18:30.200Z,6.28
2022-11-12T19:21:02.463Z,8.35
2022-11-12T19:23:29.507Z,7.75
2022-11-12T19:25:56.662Z,7.93
2022-11-12T19:28:23.056Z,9.27
2022-11-12T19:30:49.469Z,7.43
2022-11-12T19:33:16.204Z,6.72
2022-11-12T19:35:42.645Z,8.45
2022-11-12T19:38:09.235Z,6.50
2022-11-12T19:40:35.820Z,7.55
2022-11-12T19:43:02.271Z,8.60
2022-11-12T19:45:28.703Z,8.85
2022-11-12T19:47:55.124Z,6.38
2022-11-12T19:50:24.735Z,7.57
2022-11-12T19:52:54.882Z,6.50
2022-11-12T19:55:21.586Z,8.23
2022-11-12T19:57:48.078Z,8.98
2022-11-12T20:00:15.087Z,9.75
2022-11-12T20:02:41.686Z,7.50
2022-11-12T20:05:08.582Z,6.47
2022-11-12T20:07:35.117Z,7.30
2022-11-12T20:10:01.694Z,6.82
2022-11-12T20:12:29.885Z,8.52
2022-11-12T20:14:56.432Z,8.13
2022-11-12T20:17:22.954Z,6.95
2022-11-12T20:19:49.367Z,7.85
2022-11-12T20:22:15.922Z,8.07
2022-11-12T20:24:42.371Z,8.02
2022-11-12T20:27:08.893Z,7.28
2022-11-12T20:29:35.378Z,6.70
2022-11-12T20:32:02.596Z,8.55
2022-11-12T20:34:29.016Z,7.30
2022-11-12T20:36:55.452Z,7.65
2022-11-12T20:39:21.894Z,7.15
2022-11-12T20:41:51.231Z,6.40
2022-11-12T20:44:17.685Z,6.32
2022-11-12T20:46:44.131Z,8.05
2022-11-12T20:49:10.548Z,7.07
2022-11-12T20:51:37.080Z,8.18
2022-11-12T20:54:03.645Z,6.60
2022-11-12T20:56:31.231Z,6.80
2022-11-12T20:58:58.993Z,7.05
2022-11-12T21:01:26.876Z,8.27
2022-11-12T21:03:53.366Z,7.68
2022-11-12T21:06:25.002Z,6.55
2022-11-12T21:08:51.905Z,7.07
2022-11-12T21:11:21.003Z,7.75
2022-11-12T21:13:47.502Z,7.30
2022-11-12T21:16:14.584Z,6.72
2022-11-12T21:18:41.379Z,7.35
2022-11-12T21:21:10.573Z,6.88
2022-11-12T21:23:39.882Z,6.75
2022-11-12T21:26:15.105Z,9.60
2022-11-12T21:28:46.892Z,7.75
2022-11-12T21:31:16.163Z,10.15
2022-11-12T21:33:42.711Z,8.07
2022-11-12T21:36:15.843Z,7.57
2022-11-12T21:38:43.416Z,6.32
2022-11-12T21:41:11.911Z,7.57
2022-11-12T21:43:39.562Z,10.55
2022-11-12T21:46:18.060Z,6.38
2022-11-12T21:48:46.024Z,7.88
2022-11-12T21:51:19.902Z,5.88
2022-11-12T21:53:47.084Z,7.75
2022-11-12T21:56:18.323Z,6.80
2022-11-12T21:58:45.415Z,6.95
2022-11-12T22:01:12.902Z,9.90
2022-11-12T22:03:39.810Z,7.47
2022-11-12T22:06:07.357Z,10.02
2022-11-12T22:08:34.012Z,7.45
2022-11-12T22:11:06.141Z,6.43
2022-11-12T22:13:33.323Z,7.55
2022-11-12T22:16:06.072Z,7.68
2022-11-12T22:18:34.287Z,7.07
2022-11-12T22:21:10.138Z,6.72
2022-11-12T22:23:36.711Z,7.20
2022-11-12T22:26:05.714Z,6.32
2022-11-12T22:28:34.328Z,6.13
2022-11-12T22:31:10.094Z,6.75
2022-11-12T22:33:36.940Z,5.97
2022-11-12T22:36:25.321Z,5.65
2022-11-12T22:38:53.207Z,7.28
2022-11-12T22:41:21.951Z,7.40
2022-11-12T22:43:54.134Z,7.05
2022-11-12T22:46:25.991Z,6.20
2022-11-12T22:48:52.495Z,7.80
2022-11-12T22:51:21.650Z,6.05
2022-11-12T22:53:48.257Z,9.18
2022-11-12T22:56:16.466Z,6.65
2022-11-12T22:58:45.118Z,5.78
2022-11-12T23:01:18.096Z,5.43
2022-11-12T23:03:44.855Z,6.00
2022-11-12T23:06:11.447Z,5.20
2022-11-12T23:08:38.019Z,7.68
2022-11-12T23:11:13.660Z,5.50
2022-11-12T23:13:40.357Z,6.40
2022-11-12T23:16:13.105Z,6.63
2022-11-12T23:18:39.983Z,7.35
2022-11-12T23:21:28.184Z,5.38
2022-11-12T23:23:57.725Z,5.97
2022-11-12T23:26:28.024Z,7.28
2022-11-12T23:28:54.508Z,6.15
2022-11-12T23:31:23.705Z,6.20
2022-11-12T23:33:52.556Z,5.78
2022-11-12T23:36:19.849Z,5.75
2022-11-12T23:38:46.547Z,5.45
2022-11-12T23:41:16.051Z,6.35
2022-11-12T23:43:42.948Z,7.07
2022-11-12T23:46:10.078Z,7.80
2022-11-12T23:48:36.768Z,6.45
2022-11-12T23:51:06.012Z,5.00
2022-11-12T23:53:34.069Z,7.32
2022-11-12T23:56:01.535Z,4.35
2022-11-12T23:58:28.602Z,5.50
